sensor_id;sensor_type;location;lat;lon;timestamp;pressure;altitude;pressure_sealevel;temperature;humidity
85166;BME280;75533;52.100;10.228;2024-01-15T00:02:06;98123.41;;;19.86;38.93
85166;BME280;75533;52.100;10.228;2024-01-15T00:04:40;98120.06;;;19.84;38.90
85166;BME280;75533;52.100;10.228;2024-01-15T00:07:06;98115.91;;;19.81;38.84
85166;BME280;75533;52.100;10.228;2024-01-15T00:09:31;98109.53;;;19.81;38.93
85166;BME280;75533;52.100;10.228;2024-01-15T00:11:57;98100.66;;;19.74;39.05
85166;BME280;75533;52.100;10.228;2024-01-15T00:14:22;98113.97;;;19.82;38.91
85166;BME280;75533;52.100;10.228;2024-01-15T00:16:48;98105.38;;;19.78;38.95
85166;BME280;75533;52.100;10.228;2024-01-15T00:19:15;98098.97;;;19.73;38.96
85166;BME280;75533;52.100;10.228;2024-01-15T00:21:41;98115.56;;;19.73;38.87
85166;BME280;75533;52.100;10.228;2024-01-15T00:24:06;98099.22;;;19.71;38.79
85166;BME280;75533;52.100;10.228;2024-01-15T00:26:31;98106.69;;;19.71;38.84
85166;BME280;75533;52.100;10.228;2024-01-15T00:28:57;98103.09;;;19.70;38.90
85166;BME280;75533;52.100;10.228;2024-01-15T00:31:22;98099.22;;;19.71;38.81
85166;BME280;75533;52.100;10.228;2024-01-15T00:33:47;98101.16;;;19.66;38.84
85166;BME280;75533;52.100;10.228;2024-01-15T00:36:13;98085.38;;;19.66;38.89
85166;BME280;75533;52.100;10.228;2024-01-15T00:38:39;98085.38;;;19.66;38.94
85166;BME280;75533;52.100;10.228;2024-01-15T00:41:05;98085.63;;;19.65;39.00
85166;BME280;75533;52.100;10.228;2024-01-15T00:43:30;98085.63;;;19.65;39.10
85166;BME280;75533;52.100;10.228;2024-01-15T00:45:55;98091.72;;;19.62;39.24
85166;BME280;75533;52.100;10.228;2024-01-15T00:48:21;98085.06;;;19.63;39.03
85166;BME280;75533;52.100;10.228;2024-01-15T00:50:46;98088.69;;;19.63;38.87
85166;BME280;75533;52.100;10.228;2024-01-15T00:53:11;98092.53;;;19.62;38.92
85166;BME280;75533;52.100;10.228;2024-01-15T00:55:37;98076.47;;;19.59;39.05
85166;BME280;75533;52.100;10.228;2024-01-15T00:58:03;98079.25;;;19.59;38.95
85166;BME280;75533;52.100;10.228;2024-01-15T01:00:28;98086.44;;;19.55;39.09
85166;BME280;75533;52.100;10.228;2024-01-15T01:02:54;98087.53;;;19.54;39.06
85166;BME280;75533;52.100;10.228;2024-01-15T01:05:19;98082.00;;;19.54;38.94
85166;BME280;75533;52.100;10.228;2024-01-15T01:07:44;98073.09;;;19.52;38.96
85166;BME280;75533;52.100;10.228;2024-01-15T01:10:09;98085.84;;;19.53;39.07
85166;BME280;75533;52.100;10.228;2024-01-15T01:12:35;98074.16;;;19.51;39.10
85166;BME280;75533;52.100;10.228;2024-01-15T01:15:01;98081.88;;;19.44;39.15
85166;BME280;75533;52.100;10.228;2024-01-15T01:17:26;98073.59;;;19.49;39.17
85166;BME280;75533;52.100;10.228;2024-01-15T01:19:52;98073.88;;;19.47;39.16
85166;BME280;75533;52.100;10.228;2024-01-15T01:22:17;98078.84;;;19.45;39.22
85166;BME280;75533;52.100;10.228;2024-01-15T01:24:42;98073.59;;;19.44;39.27
85166;BME280;75533;52.100;10.228;2024-01-15T01:27:07;98081.88;;;19.44;39.09
85166;BME280;75533;52.100;10.228;2024-01-15T01:29:33;98083.25;;;19.41;39.01
85166;BME280;75533;52.100;10.228;2024-01-15T01:31:58;98077.72;;;19.41;39.13
85166;BME280;75533;52.100;10.228;2024-01-15T01:34:23;98075.50;;;19.38;39.16
85166;BME280;75533;52.100;10.228;2024-01-15T01:36:49;98082.41;;;19.36;38.98
85166;BME280;75533;52.100;10.228;2024-01-15T01:39:15;98070.22;;;19.37;39.11
85166;BME280;75533;52.100;10.228;2024-01-15T01:41:40;98068.56;;;19.36;39.06
85166;BME280;75533;52.100;10.228;2024-01-15T01:44:06;98077.97;;;19.35;38.90
85166;BME280;75533;52.100;10.228;2024-01-15T01:46:32;98067.16;;;19.33;39.12
85166;BME280;75533;52.100;10.228;2024-01-15T01:48:59;98062.75;;;19.32;39.14
85166;BME280;75533;52.100;10.228;2024-01-15T01:51:30;98066.00;;;19.29;39.01
85166;BME280;75533;52.100;10.228;2024-01-15T01:53:56;98063.25;;;19.29;39.14
85166;BME280;75533;52.100;10.228;2024-01-15T01:56:21;98057.41;;;19.26;39.27
85166;BME280;75533;52.100;10.228;2024-01-15T01:58:47;98056.59;;;19.25;39.25
85166;BME280;75533;52.100;10.228;2024-01-15T02:01:13;98057.97;;;19.22;39.02
85166;BME280;75533;52.100;10.228;2024-01-15T02:03:40;98063.78;;;19.26;39.02
85166;BME280;75533;52.100;10.228;2024-01-15T02:06:05;98057.69;;;19.24;39.18
85166;BME280;75533;52.100;10.228;2024-01-15T02:08:31;98047.44;;;19.19;39.21
85166;BME280;75533;52.100;10.228;2024-01-15T02:10:56;98044.66;;;19.19;39.37
85166;BME280;75533;52.100;10.228;2024-01-15T02:13:22;98046.31;;;19.15;39.53
85166;BME280;75533;52.100;10.228;2024-01-15T02:15:47;98053.50;;;19.16;39.54
85166;BME280;75533;52.100;10.228;2024-01-15T02:18:12;98051.84;;;19.15;39.29
85166;BME280;75533;52.100;10.228;2024-01-15T02:20:38;98063.44;;;19.12;39.51
85166;BME280;75533;52.100;10.228;2024-01-15T02:23:13;98047.66;;;19.13;39.30
85166;BME280;75533;52.100;10.228;2024-01-15T02:25:44;98055.41;;;19.11;39.39
85166;BME280;75533;52.100;10.228;2024-01-15T02:28:14;98045.16;;;19.11;39.33
85166;BME280;75533;52.100;10.228;2024-01-15T02:30:41;98045.13;;;19.06;39.44
85166;BME280;75533;52.100;10.228;2024-01-15T02:33:07;98043.44;;;19.05;39.69
85166;BME280;75533;52.100;10.228;2024-01-15T02:35:33;98039.00;;;19.04;39.25
85166;BME280;75533;52.100;10.228;2024-01-15T02:38:02;98033.47;;;19.04;39.44
85166;BME280;75533;52.100;10.228;2024-01-15T02:40:30;98034.03;;;19.01;39.50
85166;BME280;75533;52.100;10.228;2024-01-15T02:42:56;98036.78;;;19.01;39.21
85166;BME280;75533;52.100;10.228;2024-01-15T02:45:22;98039.56;;;19.01;39.34
85166;BME280;75533;52.100;10.228;2024-01-15T02:47:48;98036.50;;;18.98;39.52
85166;BME280;75533;52.100;10.228;2024-01-15T02:50:13;98029.28;;;18.97;39.52
85166;BME280;75533;52.100;10.228;2024-01-15T02:52:39;98035.94;;;18.96;39.29
85166;BME280;75533;52.100;10.228;2024-01-15T02:55:04;98030.13;;;18.97;39.44
85166;BME280;75533;52.100;10.228;2024-01-15T02:57:30;98019.88;;;18.92;39.53
85166;BME280;75533;52.100;10.228;2024-01-15T02:59:55;98012.13;;;18.89;39.65
85166;BME280;75533;52.100;10.228;2024-01-15T03:02:20;98013.78;;;18.90;39.49
85166;BME280;75533;52.100;10.228;2024-01-15T03:04:46;98014.03;;;18.89;39.59
85166;BME280;75533;52.100;10.228;2024-01-15T03:07:12;98010.75;;;18.92;39.47
85166;BME280;75533;52.100;10.228;2024-01-15T03:09:37;98010.72;;;18.87;39.56
85166;BME280;75533;52.100;10.228;2024-01-15T03:12:03;98007.09;;;18.86;39.36
85166;BME280;75533;52.100;10.228;2024-01-15T03:14:29;97999.06;;;18.85;39.40
85166;BME280;75533;52.100;10.228;2024-01-15T03:16:54;98014.53;;;18.86;39.13
85166;BME280;75533;52.100;10.228;2024-01-15T03:19:20;98016.47;;;18.85;39.24
85166;BME280;75533;52.100;10.228;2024-01-15T03:21:45;98016.75;;;18.84;39.24
85166;BME280;75533;52.100;10.228;2024-01-15T03:24:10;98006.78;;;18.83;39.33
85166;BME280;75533;52.100;10.228;2024-01-15T03:26:36;98008.41;;;18.79;39.63
85166;BME280;75533;52.100;10.228;2024-01-15T03:29:01;98007.88;;;18.82;39.41
85166;BME280;75533;52.100;10.228;2024-01-15T03:31:27;97993.19;;;18.76;39.29
85166;BME280;75533;52.100;10.228;2024-01-15T03:33:52;98002.06;;;18.78;39.38
85166;BME280;75533;52.100;10.228;2024-01-15T03:36:17;97994.03;;;18.77;39.45
85166;BME280;75533;52.100;10.228;2024-01-15T03:38:43;98000.66;;;18.76;39.45
85166;BME280;75533;52.100;10.228;2024-01-15T03:41:08;97989.03;;;18.74;39.17
85166;BME280;75533;52.100;10.228;2024-01-15T03:43:33;97993.16;;;18.71;39.36
85166;BME280;75533;52.100;10.228;2024-01-15T03:45:59;98000.06;;;18.69;39.34
85166;BME280;75533;52.100;10.228;2024-01-15T03:48:24;97993.72;;;18.68;39.39
85166;BME280;75533;52.100;10.228;2024-01-15T03:50:50;98002.25;;;18.67;39.44
85166;BME280;75533;52.100;10.228;2024-01-15T03:53:15;97996.75;;;18.67;39.23
85166;BME280;75533;52.100;10.228;2024-01-15T03:55:42;98000.34;;;18.67;39.51
85166;BME280;75533;52.100;10.228;2024-01-15T03:58:07;97999.75;;;18.65;39.16
85166;BME280;75533;52.100;10.228;2024-01-15T04:00:33;98004.69;;;18.63;39.41
85166;BME280;75533;52.100;10.228;2024-01-15T04:02:58;98013.22;;;18.61;39.56
85166;BME280;75533;52.100;10.228;2024-01-15T04:05:23;98001.34;;;18.61;39.35
85166;BME280;75533;52.100;10.228;2024-01-15T04:07:49;98001.31;;;18.56;39.29
85166;BME280;75533;52.100;10.228;2024-01-15T04:10:14;98000.72;;;18.54;39.38
85166;BME280;75533;52.100;10.228;2024-01-15T04:12:39;97987.47;;;18.56;39.37
85166;BME280;75533;52.100;10.228;2024-01-15T04:15:05;97995.78;;;18.56;39.35
85166;BME280;75533;52.100;10.228;2024-01-15T04:17:31;97990.50;;;18.54;39.36
85166;BME280;75533;52.100;10.228;2024-01-15T04:19:56;98001.56;;;18.54;39.23
85166;BME280;75533;52.100;10.228;2024-01-15T04:22:23;98005.16;;;18.55;39.30
85166;BME280;75533;52.100;10.228;2024-01-15T04:24:48;98005.97;;;18.50;39.53
85166;BME280;75533;52.100;10.228;2024-01-15T04:27:14;98008.47;;;18.52;39.22
85166;BME280;75533;52.100;10.228;2024-01-15T04:29:39;98008.16;;;18.48;39.20
85166;BME280;75533;52.100;10.228;2024-01-15T04:32:05;98006.25;;;18.54;39.24
85166;BME280;75533;52.100;10.228;2024-01-15T04:34:30;98005.69;;;18.52;39.25
85166;BME280;75533;52.100;10.228;2024-01-15T04:36:55;98010.66;;;18.50;39.04
85166;BME280;75533;52.100;10.228;2024-01-15T04:39:21;98013.41;;;18.50;38.94
85166;BME280;75533;52.100;10.228;2024-01-15T04:41:47;98013.16;;;18.51;38.97
85166;BME280;75533;52.100;10.228;2024-01-15T04:44:12;98011.22;;;18.52;38.96
85166;BME280;75533;52.100;10.228;2024-01-15T04:46:38;97999.88;;;18.48;39.15
85166;BME280;75533;52.100;10.228;2024-01-15T04:49:03;98008.16;;;18.48;38.95
85166;BME280;75533;52.100;10.228;2024-01-15T04:51:30;98013.69;;;18.48;38.91
85166;BME280;75533;52.100;10.228;2024-01-15T04:53:55;98007.06;;;18.49;38.90
85166;BME280;75533;52.100;10.228;2024-01-15T04:56:20;97998.19;;;18.47;39.23
85166;BME280;75533;52.100;10.228;2024-01-15T04:58:46;97990.94;;;18.41;39.53
85166;BME280;75533;52.100;10.228;2024-01-15T05:01:11;97998.72;;;18.44;39.46
85166;BME280;75533;52.100;10.228;2024-01-15T05:03:37;97991.28;;;18.45;39.49
85166;BME280;75533;52.100;10.228;2024-01-15T05:06:02;97992.09;;;18.45;39.29
85166;BME280;75533;52.100;10.228;2024-01-15T05:08:28;97990.44;;;18.44;39.63
85166;BME280;75533;52.100;10.228;2024-01-15T05:10:53;98007.59;;;18.46;39.34
85166;BME280;75533;52.100;10.228;2024-01-15T05:13:18;98000.44;;;18.50;39.15
85166;BME280;75533;52.100;10.228;2024-01-15T05:15:44;98008.72;;;18.50;39.16
85166;BME280;75533;52.100;10.228;2024-01-15T05:18:09;97990.75;;;18.48;39.43
85166;BME280;75533;52.100;10.228;2024-01-15T05:20:34;97996.00;;;18.49;39.16
85166;BME280;75533;52.100;10.228;2024-01-15T05:23:00;97998.78;;;18.49;39.34
85166;BME280;75533;52.100;10.228;2024-01-15T05:25:25;97993.50;;;18.48;39.28
85166;BME280;75533;52.100;10.228;2024-01-15T05:27:51;97993.25;;;18.49;38.85
85166;BME280;75533;52.100;10.228;2024-01-15T05:30:16;97997.94;;;18.49;39.08
85166;BME280;75533;52.100;10.228;2024-01-15T05:32:41;97997.66;;;18.50;39.10
85166;BME280;75533;52.100;10.228;2024-01-15T05:35:07;98017.84;;;18.51;38.86
85166;BME280;75533;52.100;10.228;2024-01-15T05:37:32;97994.06;;;18.50;38.79
85166;BME280;75533;52.100;10.228;2024-01-15T05:39:58;97998.25;;;18.52;39.08
85166;BME280;75533;52.100;10.228;2024-01-15T05:42:23;98010.13;;;18.53;39.06
85166;BME280;75533;52.100;10.228;2024-01-15T05:44:49;98005.16;;;18.55;38.71
85166;BME280;75533;52.100;10.228;2024-01-15T05:47:14;97991.34;;;18.55;39.02
85166;BME280;75533;52.100;10.228;2024-01-15T05:49:39;97988.84;;;18.53;39.03
85166;BME280;75533;52.100;10.228;2024-01-15T05:52:05;97988.84;;;18.53;39.37
85166;BME280;75533;52.100;10.228;2024-01-15T05:54:30;97997.69;;;18.55;39.23
85166;BME280;75533;52.100;10.228;2024-01-15T05:56:55;97991.66;;;18.58;39.11
85166;BME280;75533;52.100;10.228;2024-01-15T05:59:21;97994.16;;;18.60;39.07
85166;BME280;75533;52.100;10.228;2024-01-15T06:01:46;97976.97;;;18.53;39.16
85166;BME280;75533;52.100;10.228;2024-01-15T06:04:11;97988.88;;;18.58;39.42
85166;BME280;75533;52.100;10.228;2024-01-15T06:06:37;97988.63;;;18.60;39.16
85166;BME280;75533;52.100;10.228;2024-01-15T06:09:02;97979.00;;;18.62;39.39
85166;BME280;75533;52.100;10.228;2024-01-15T06:11:34;97979.56;;;18.65;39.39
85166;BME280;75533;52.100;10.228;2024-01-15T06:13:59;97971.78;;;18.61;39.37
85166;BME280;75533;52.100;10.228;2024-01-15T06:16:28;97977.06;;;18.63;39.30
85166;BME280;75533;52.100;10.228;2024-01-15T06:18:55;97974.28;;;18.63;39.32
85166;BME280;75533;52.100;10.228;2024-01-15T06:21:20;97982.91;;;18.67;39.31
85166;BME280;75533;52.100;10.228;2024-01-15T06:23:46;97982.09;;;18.66;39.08
85166;BME280;75533;52.100;10.228;2024-01-15T06:26:12;97982.91;;;18.67;39.35
85166;BME280;75533;52.100;10.228;2024-01-15T06:28:37;97985.34;;;18.63;39.61
85166;BME280;75533;52.100;10.228;2024-01-15T06:31:02;97973.47;;;18.62;39.65
85166;BME280;75533;52.100;10.228;2024-01-15T06:33:28;97977.38;;;18.67;39.77
85166;BME280;75533;52.100;10.228;2024-01-15T06:35:53;97979.06;;;18.68;39.88
85166;BME280;75533;52.100;10.228;2024-01-15T06:38:19;97978.81;;;18.74;39.48
85166;BME280;75533;52.100;10.228;2024-01-15T06:40:44;97985.59;;;18.61;39.13
85166;BME280;75533;52.100;10.228;2024-01-15T06:43:11;97990.78;;;18.53;39.07
85166;BME280;75533;52.100;10.228;2024-01-15T06:45:36;97994.97;;;18.60;39.07
85166;BME280;75533;52.100;10.228;2024-01-15T06:48:02;97992.81;;;18.62;39.26
85166;BME280;75533;52.100;10.228;2024-01-15T06:50:27;97987.78;;;18.59;39.27
85166;BME280;75533;52.100;10.228;2024-01-15T06:52:52;98000.34;;;18.67;39.16
85166;BME280;75533;52.100;10.228;2024-01-15T06:55:18;97985.59;;;18.61;39.04
85166;BME280;75533;52.100;10.228;2024-01-15T06:57:43;98000.91;;;18.69;39.02
85166;BME280;75533;52.100;10.228;2024-01-15T07:00:09;97998.69;;;18.71;38.99
85166;BME280;75533;52.100;10.228;2024-01-15T07:02:35;97995.09;;;18.71;38.84
85166;BME280;75533;52.100;10.228;2024-01-15T07:05:00;97995.94;;;18.71;38.97
85166;BME280;75533;52.100;10.228;2024-01-15T07:07:26;98002.03;;;18.73;39.12
85166;BME280;75533;52.100;10.228;2024-01-15T07:09:54;97998.69;;;18.71;39.14
85166;BME280;75533;52.100;10.228;2024-01-15T07:12:19;98000.63;;;18.71;38.97
85166;BME280;75533;52.100;10.228;2024-01-15T07:14:44;97999.53;;;18.72;39.26
85166;BME280;75533;52.100;10.228;2024-01-15T07:17:10;98007.53;;;18.68;39.19
85166;BME280;75533;52.100;10.228;2024-01-15T07:19:36;98018.88;;;18.72;38.75
85166;BME280;75533;52.100;10.228;2024-01-15T07:22:01;98018.03;;;18.71;39.36
85166;BME280;75533;52.100;10.228;2024-01-15T07:24:27;98012.22;;;18.68;39.23
85166;BME280;75533;52.100;10.228;2024-01-15T07:26:52;98012.81;;;18.75;38.71
85166;BME280;75533;52.100;10.228;2024-01-15T07:29:17;98014.44;;;18.71;39.36
85166;BME280;75533;52.100;10.228;2024-01-15T07:31:52;98002.59;;;18.75;38.90
85166;BME280;75533;52.100;10.228;2024-01-15T07:34:19;98009.75;;;18.71;39.22
85166;BME280;75533;52.100;10.228;2024-01-15T07:36:44;98011.38;;;18.67;39.37
85166;BME280;75533;52.100;10.228;2024-01-15T07:39:10;98016.13;;;18.72;39.44
85166;BME280;75533;52.100;10.228;2024-01-15T07:41:36;98012.00;;;18.74;39.23
85166;BME280;75533;52.100;10.228;2024-01-15T07:44:01;98010.34;;;18.78;39.20
85166;BME280;75533;52.100;10.228;2024-01-15T07:46:27;98001.78;;;18.80;39.15
85166;BME280;75533;52.100;10.228;2024-01-15T07:48:52;98022.81;;;18.81;39.07
85166;BME280;75533;52.100;10.228;2024-01-15T07:51:22;98017.28;;;18.81;39.13
85166;BME280;75533;52.100;10.228;2024-01-15T07:53:47;98013.41;;;18.82;38.94
85166;BME280;75533;52.100;10.228;2024-01-15T07:56:12;98017.53;;;18.79;39.01
85166;BME280;75533;52.100;10.228;2024-01-15T07:58:38;98008.13;;;18.75;39.39
85166;BME280;75533;52.100;10.228;2024-01-15T08:01:03;98025.59;;;18.86;39.41
85166;BME280;75533;52.100;10.228;2024-01-15T08:03:28;98017.28;;;18.81;39.08
85166;BME280;75533;52.100;10.228;2024-01-15T08:05:54;98020.63;;;18.83;39.17
85166;BME280;75533;52.100;10.228;2024-01-15T08:08:20;98026.69;;;18.80;39.37
85166;BME280;75533;52.100;10.228;2024-01-15T08:10:49;98030.06;;;18.87;39.49
85166;BME280;75533;52.100;10.228;2024-01-15T08:13:14;98024.78;;;18.85;39.34
85166;BME280;75533;52.100;10.228;2024-01-15T08:15:41;98024.53;;;18.87;39.27
85166;BME280;75533;52.100;10.228;2024-01-15T08:18:06;98024.03;;;18.95;39.09
85166;BME280;75533;52.100;10.228;2024-01-15T08:20:32;98028.47;;;18.96;39.25
85166;BME280;75533;52.100;10.228;2024-01-15T08:22:57;98030.97;;;18.98;39.03
85166;BME280;75533;52.100;10.228;2024-01-15T08:25:23;98027.38;;;18.97;39.22
85166;BME280;75533;52.100;10.228;2024-01-15T08:27:48;98024.03;;;18.95;38.95
85166;BME280;75533;52.100;10.228;2024-01-15T08:30:14;98035.66;;;18.97;39.10
85166;BME280;75533;52.100;10.228;2024-01-15T08:32:39;98036.78;;;19.01;38.93
85166;BME280;75533;52.100;10.228;2024-01-15T08:35:08;98036.19;;;18.94;38.98
85166;BME280;75533;52.100;10.228;2024-01-15T08:37:33;98022.91;;;18.91;39.25
85166;BME280;75533;52.100;10.228;2024-01-15T08:39:59;98033.19;;;19.01;39.06
85166;BME280;75533;52.100;10.228;2024-01-15T08:42:24;98041.78;;;19.04;39.04
85166;BME280;75533;52.100;10.228;2024-01-15T08:44:50;98029.84;;;18.99;39.51
85166;BME280;75533;52.100;10.228;2024-01-15T08:47:15;98038.44;;;19.02;39.14
85166;BME280;75533;52.100;10.228;2024-01-15T08:49:41;98038.19;;;19.04;39.26
85166;BME280;75533;52.100;10.228;2024-01-15T08:52:08;98033.19;;;19.01;39.08
85166;BME280;75533;52.100;10.228;2024-01-15T08:54:33;98031.22;;;18.96;39.08
85166;BME280;75533;52.100;10.228;2024-01-15T08:56:58;98032.31;;;18.95;39.09
85166;BME280;75533;52.100;10.228;2024-01-15T08:59:24;98028.19;;;18.98;39.19
85166;BME280;75533;52.100;10.228;2024-01-15T09:01:54;98032.06;;;18.97;39.12
85166;BME280;75533;52.100;10.228;2024-01-15T09:04:22;98024.56;;;18.92;39.29
85166;BME280;75533;52.100;10.228;2024-01-15T09:06:48;98028.22;;;19.03;39.10
85166;BME280;75533;52.100;10.228;2024-01-15T09:09:13;98035.69;;;19.02;39.17
85166;BME280;75533;52.100;10.228;2024-01-15T09:11:41;98037.34;;;19.03;39.14
85166;BME280;75533;52.100;10.228;2024-01-15T09:14:07;98031.25;;;19.01;39.38
85166;BME280;75533;52.100;10.228;2024-01-15T09:16:33;98030.69;;;18.99;39.24
85166;BME280;75533;52.100;10.228;2024-01-15T09:18:59;98037.88;;;19.00;39.38
85166;BME280;75533;52.100;10.228;2024-01-15T09:21:24;98038.44;;;18.97;39.05
85166;BME280;75533;52.100;10.228;2024-01-15T09:23:50;98034.03;;;19.01;39.26
85166;BME280;75533;52.100;10.228;2024-01-15T09:26:16;98039.00;;;18.99;39.21
85166;BME280;75533;52.100;10.228;2024-01-15T09:28:41;98039.84;;;19.05;39.25
85166;BME280;75533;52.100;10.228;2024-01-15T09:31:07;98047.88;;;19.06;39.23
85166;BME280;75533;52.100;10.228;2024-01-15T09:33:32;98041.78;;;19.04;39.30
85166;BME280;75533;52.100;10.228;2024-01-15T09:36:00;98042.09;;;19.08;39.00
85166;BME280;75533;52.100;10.228;2024-01-15T09:38:25;98049.53;;;19.07;39.38
85166;BME280;75533;52.100;10.228;2024-01-15T09:40:52;98045.13;;;19.06;39.12
85166;BME280;75533;52.100;10.228;2024-01-15T09:43:18;98044.84;;;19.08;39.06
85166;BME280;75533;52.100;10.228;2024-01-15T09:45:44;98050.97;;;19.10;39.02
85166;BME280;75533;52.100;10.228;2024-01-15T09:48:09;98053.47;;;19.11;39.07
85166;BME280;75533;52.100;10.228;2024-01-15T09:50:35;98046.53;;;19.09;39.08
85166;BME280;75533;52.100;10.228;2024-01-15T09:53:00;98044.63;;;19.14;39.14
85166;BME280;75533;52.100;10.228;2024-01-15T09:55:27;98043.53;;;19.15;39.28
85166;BME280;75533;52.100;10.228;2024-01-15T09:57:54;98044.63;;;19.14;39.18
85166;BME280;75533;52.100;10.228;2024-01-15T10:00:21;98047.13;;;19.16;39.12
85166;BME280;75533;52.100;10.228;2024-01-15T10:02:47;98039.97;;;19.20;39.14
85166;BME280;75533;52.100;10.228;2024-01-15T10:05:12;98048.53;;;19.18;38.88
85166;BME280;75533;52.100;10.228;2024-01-15T10:07:38;98056.28;;;19.21;39.05
85166;BME280;75533;52.100;10.228;2024-01-15T10:10:05;98047.16;;;19.21;38.94
85166;BME280;75533;52.100;10.228;2024-01-15T10:12:30;98052.41;;;19.22;39.00
85166;BME280;75533;52.100;10.228;2024-01-15T10:14:56;98048.56;;;19.23;38.88
85166;BME280;75533;52.100;10.228;2024-01-15T10:17:21;98044.41;;;19.21;38.98
85166;BME280;75533;52.100;10.228;2024-01-15T10:19:46;98063.78;;;19.26;38.74
85166;BME280;75533;52.100;10.228;2024-01-15T10:22:14;98042.78;;;19.30;38.77
85166;BME280;75533;52.100;10.228;2024-01-15T10:24:40;98055.00;;;19.34;38.90
85166;BME280;75533;52.100;10.228;2024-01-15T10:27:09;98040.34;;;19.34;39.46
85166;BME280;75533;52.100;10.228;2024-01-15T10:29:35;98045.59;;;19.35;38.78
85166;BME280;75533;52.100;10.228;2024-01-15T10:32:01;98045.59;;;19.35;38.78
85166;BME280;75533;52.100;10.228;2024-01-15T10:34:26;98034.53;;;19.35;38.77
85166;BME280;75533;52.100;10.228;2024-01-15T10:36:51;98054.72;;;19.36;38.80
85166;BME280;75533;52.100;10.228;2024-01-15T10:39:21;98047.53;;;19.35;38.48
85166;BME280;75533;52.100;10.228;2024-01-15T10:41:47;98050.88;;;19.37;38.80
85166;BME280;75533;52.100;10.228;2024-01-15T10:44:12;98048.09;;;19.37;38.75
85166;BME280;75533;52.100;10.228;2024-01-15T10:46:38;98048.09;;;19.37;38.70
85166;BME280;75533;52.100;10.228;2024-01-15T10:49:04;98053.63;;;19.37;38.73
85166;BME280;75533;52.100;10.228;2024-01-15T10:51:29;98046.16;;;19.37;38.65
85166;BME280;75533;52.100;10.228;2024-01-15T10:53:56;98043.13;;;19.39;38.68
85166;BME280;75533;52.100;10.228;2024-01-15T10:56:22;98050.88;;;19.37;38.78
85166;BME280;75533;52.100;10.228;2024-01-15T10:58:49;98042.56;;;19.37;38.93
85166;BME280;75533;52.100;10.228;2024-01-15T11:01:16;98050.88;;;19.42;38.89
85166;BME280;75533;52.100;10.228;2024-01-15T11:03:42;98051.72;;;19.42;38.80
85166;BME280;75533;52.100;10.228;2024-01-15T11:06:18;98052.78;;;19.36;38.54
85166;BME280;75533;52.100;10.228;2024-01-15T11:08:50;98046.13;;;19.32;38.56
85166;BME280;75533;52.100;10.228;2024-01-15T11:11:17;98055.84;;;19.35;38.57
85166;BME280;75533;52.100;10.228;2024-01-15T11:13:43;98045.59;;;19.35;38.50
85166;BME280;75533;52.100;10.228;2024-01-15T11:16:13;98051.97;;;19.36;38.56
85166;BME280;75533;52.100;10.228;2024-01-15T11:18:43;98054.47;;;19.37;38.68
85166;BME280;75533;52.100;10.228;2024-01-15T11:21:26;98050.06;;;19.41;38.53
85166;BME280;75533;52.100;10.228;2024-01-15T11:29:10;98058.91;;;19.43;38.51
85166;BME280;75533;52.100;10.228;2024-01-15T11:32:07;98068.06;;;19.44;38.49
85166;BME280;75533;52.100;10.228;2024-01-15T11:34:55;98064.44;;;19.43;38.61
85166;BME280;75533;52.100;10.228;2024-01-15T11:37:24;98066.94;;;19.45;38.82
85166;BME280;75533;52.100;10.228;2024-01-15T11:39:54;98056.16;;;19.43;38.72
85166;BME280;75533;52.100;10.228;2024-01-15T11:42:20;98062.81;;;19.47;38.74
85166;BME280;75533;52.100;10.228;2024-01-15T11:44:46;98057.53;;;19.46;38.81
85166;BME280;75533;52.100;10.228;2024-01-15T11:47:12;98041.78;;;19.46;38.86
85166;BME280;75533;52.100;10.228;2024-01-15T11:50:02;98057.53;;;19.46;38.76
85166;BME280;75533;52.100;10.228;2024-01-15T11:52:38;98049.25;;;19.46;38.72
85166;BME280;75533;52.100;10.228;2024-01-15T11:55:22;98035.41;;;19.46;38.83
85166;BME280;75533;52.100;10.228;2024-01-15T11:57:52;98041.50;;;19.48;38.87
85166;BME280;75533;52.100;10.228;2024-01-15T12:00:20;98042.34;;;19.48;38.89
85166;BME280;75533;52.100;10.228;2024-01-15T12:02:46;98034.88;;;19.49;38.89
85166;BME280;75533;52.100;10.228;2024-01-15T12:05:14;98031.00;;;19.50;38.81
85166;BME280;75533;52.100;10.228;2024-01-15T12:07:44;98035.19;;;19.52;39.07
85166;BME280;75533;52.100;10.228;2024-01-15T12:10:10;98040.22;;;19.56;38.98
85166;BME280;75533;52.100;10.228;2024-01-15T12:12:58;98039.94;;;19.57;39.05
85166;BME280;75533;52.100;10.228;2024-01-15T12:15:26;98031.59;;;19.52;38.90
85166;BME280;75533;52.100;10.228;2024-01-15T12:17:53;98030.25;;;19.55;38.73
85166;BME280;75533;52.100;10.228;2024-01-15T12:20:19;98034.13;;;19.53;38.74
85166;BME280;75533;52.100;10.228;2024-01-15T12:22:45;98034.34;;;19.52;38.85
85166;BME280;75533;52.100;10.228;2024-01-15T12:25:11;98033.25;;;19.53;38.68
85166;BME280;75533;52.100;10.228;2024-01-15T12:27:36;98031.34;;;19.53;38.73
85166;BME280;75533;52.100;10.228;2024-01-15T12:30:02;98032.19;;;19.54;38.76
85166;BME280;75533;52.100;10.228;2024-01-15T12:32:29;98035.97;;;19.48;38.64
85166;BME280;75533;52.100;10.228;2024-01-15T12:34:54;98039.66;;;19.59;38.83
85166;BME280;75533;52.100;10.228;2024-01-15T12:37:20;98050.47;;;19.60;38.64
85166;BME280;75533;52.100;10.228;2024-01-15T12:39:46;98044.38;;;19.58;38.97
85166;BME280;75533;52.100;10.228;2024-01-15T12:42:14;98036.06;;;19.58;38.74
85166;BME280;75533;52.100;10.228;2024-01-15T12:44:40;98037.72;;;19.59;38.73
85166;BME280;75533;52.100;10.228;2024-01-15T12:47:06;98039.66;;;19.59;38.76
85166;BME280;75533;52.100;10.228;2024-01-15T12:49:31;98037.16;;;19.57;38.81
85166;BME280;75533;52.100;10.228;2024-01-15T12:51:58;98038.56;;;19.60;38.73